Hyderabad, India
Current Conditions -  °F | °C
As of 4:10 PM on Monday 20 Oct 2014 (Local Time) from VOHS Reporting Station
Few Clouds Few Clouds  
Wind Chill: 84°   Ceiling: Unl
Heat Index: 84°   Visibility: 4mi
Dew Point: 54°   Wind: 8mph
Humidity: 35%   Direction: 100°E
Pressure: 29.94"   Gusts: NA
Location:  17.39°N, 78.49°E
Report Text: VOHS 201110Z 10007KT 6000 FEW020 29/12 Q1014 NOSIG
Loading
Personal Weather Stations






























Interactive Weather Map
Tropical Storm Tracking
New forecast layout! Learn more

10-Day Weather Forecast

Advertisements
Track Severe Weather on mobile